createdAt,value
2022-09-20T00:01:13.801Z,3.77
2022-09-20T00:03:47.143Z,4.07
2022-09-20T00:06:21.593Z,4.33
2022-09-20T00:08:53.622Z,4.60
2022-09-20T00:11:31.226Z,4.30
2022-09-20T00:14:05.985Z,4.50
2022-09-20T00:16:40.806Z,3.40
2022-09-20T00:19:19.830Z,4.07
2022-09-20T00:21:51.517Z,4.40
2022-09-20T00:24:23.195Z,4.20
2022-09-20T00:26:55.187Z,3.80
2022-09-20T00:29:26.917Z,3.90
2022-09-20T00:31:58.689Z,3.83
2022-09-20T00:34:48.817Z,4.27
2022-09-20T00:37:20.514Z,4.40
2022-09-20T00:39:52.165Z,3.87
2022-09-20T00:42:28.882Z,3.40
2022-09-20T00:45:06.027Z,4.30
2022-09-20T00:47:47.743Z,4.50
2022-09-20T00:50:41.634Z,4.07
2022-09-20T00:53:21.498Z,3.60
2022-09-20T00:56:03.917Z,3.80
2022-09-20T00:58:40.194Z,4.00
2022-09-20T01:01:12.746Z,3.97
2022-09-20T01:03:45.524Z,3.53
2022-09-20T01:06:17.918Z,4.47
2022-09-20T01:08:52.055Z,3.57
2022-09-20T01:11:24.899Z,5.30
2022-09-20T01:13:57.486Z,4.40
2022-09-20T01:16:31.149Z,3.43
2022-09-20T01:19:15.357Z,3.90
2022-09-20T01:21:48.562Z,3.30
2022-09-20T01:24:33.454Z,3.37
2022-09-20T01:27:19.198Z,4.03
2022-09-20T01:30:07.714Z,4.50
2022-09-20T01:33:03.922Z,3.20
2022-09-20T01:35:36.694Z,4.00
2022-09-20T01:38:34.495Z,3.23
2022-09-20T01:41:30.446Z,3.73
2022-09-20T01:44:08.062Z,3.10
2022-09-20T01:46:42.881Z,3.30
2022-09-20T01:49:43.214Z,3.30
2022-09-20T01:52:21.049Z,6.30
2022-09-20T01:55:04.937Z,3.83
2022-09-20T01:57:57.266Z,2.93
2022-09-20T02:00:34.919Z,4.20
2022-09-20T02:03:28.422Z,4.50
2022-09-20T02:06:11.808Z,3.80
2022-09-20T02:09:11.639Z,4.20
2022-09-20T02:11:50.190Z,2.90
2022-09-20T02:14:41.788Z,3.17
2022-09-20T02:17:24.133Z,3.50
2022-09-20T02:20:15.944Z,3.40
2022-09-20T02:23:21.245Z,3.33
2022-09-20T02:26:11.099Z,3.60
2022-09-20T02:29:13.419Z,2.93
2022-09-20T02:31:57.175Z,3.93
2022-09-20T02:34:59.865Z,3.70
2022-09-20T02:37:55.819Z,3.77
2022-09-20T02:41:07.075Z,3.20
2022-09-20T02:43:54.240Z,3.87
2022-09-20T02:46:41.042Z,3.17
2022-09-20T02:49:18.513Z,3.00
2022-09-20T02:51:55.089Z,3.20
2022-09-20T02:54:58.638Z,3.30
2022-09-20T02:57:46.917Z,3.87
2022-09-20T03:00:28.871Z,3.43
2022-09-20T03:03:13.490Z,3.33
2022-09-20T03:06:19.666Z,3.47
2022-09-20T03:09:02.657Z,4.10
2022-09-20T03:12:19.065Z,3.27
2022-09-20T03:15:25.925Z,3.73
2022-09-20T03:18:15.267Z,3.30
2022-09-20T03:21:33.577Z,3.63
2022-09-20T03:24:24.817Z,3.73
2022-09-20T03:27:07.737Z,4.77
2022-09-20T03:30:16.082Z,3.90
2022-09-20T03:33:25.403Z,4.17
2022-09-20T03:36:15.157Z,3.17
2022-09-20T03:39:00.054Z,3.70
2022-09-20T03:41:40.938Z,3.40
2022-09-20T03:44:27.684Z,3.47
2022-09-20T03:47:27.202Z,3.80
2022-09-20T03:50:17.135Z,3.78
2022-09-20T03:53:07.915Z,3.80
2022-09-20T03:55:59.959Z,4.97
2022-09-20T03:58:44.319Z,3.57
2022-09-20T04:01:21.888Z,3.80
2022-09-20T04:04:16.671Z,4.10
2022-09-20T04:07:46.951Z,3.23
2022-09-20T04:10:46.941Z,3.83
2022-09-20T04:13:49.051Z,3.77
2022-09-20T04:16:46.081Z,3.60
2022-09-20T04:19:44.767Z,4.07
2022-09-20T04:22:18.753Z,4.10
2022-09-20T04:24:58.622Z,3.97
2022-09-20T04:27:41.335Z,3.40
2022-09-20T04:30:29.563Z,3.87
2022-09-20T04:33:33.511Z,3.50
2022-09-20T04:36:29.377Z,3.83
2022-09-20T04:39:16.047Z,3.90
2022-09-20T04:42:22.667Z,4.17
2022-09-20T04:45:05.264Z,4.73
2022-09-20T04:48:01.385Z,4.97
2022-09-20T04:50:36.044Z,4.23
2022-09-20T04:53:45.206Z,4.33
2022-09-20T04:56:44.802Z,4.07
2022-09-20T04:59:48.514Z,4.27
2022-09-20T05:02:50.469Z,4.30
2022-09-20T05:05:31.013Z,4.27
2022-09-20T05:08:21.313Z,4.13
2022-09-20T05:11:27.582Z,4.20
2022-09-20T05:14:24.688Z,4.93
2022-09-20T05:17:17.822Z,4.30
2022-09-20T05:20:24.206Z,5.00
2022-09-20T05:23:22.793Z,5.10
2022-09-20T05:26:08.119Z,7.00
2022-09-20T05:28:58.422Z,5.00
2022-09-20T05:32:05.101Z,4.37
2022-09-20T05:35:00.617Z,5.13
2022-09-20T05:37:32.332Z,4.43
2022-09-20T05:40:22.535Z,4.97
2022-09-20T05:43:26.366Z,5.50
2022-09-20T05:46:16.655Z,5.53
2022-09-20T05:49:07.010Z,5.27
2022-09-20T05:51:56.731Z,5.00
2022-09-20T05:54:43.458Z,5.83
2022-09-20T05:57:48.997Z,5.80
2022-09-20T06:00:27.865Z,6.00
2022-09-20T06:03:24.534Z,5.53
2022-09-20T06:06:08.097Z,6.10
2022-09-20T06:09:00.110Z,11.37
2022-09-20T06:11:54.032Z,6.37
2022-09-20T06:14:40.269Z,5.70
2022-09-20T06:17:30.867Z,5.60
2022-09-20T06:20:26.543Z,5.40
2022-09-20T06:23:01.069Z,6.13
2022-09-20T06:25:57.628Z,6.20
2022-09-20T06:28:40.393Z,5.40
2022-09-20T06:31:12.268Z,5.07
2022-09-20T06:34:08.962Z,5.77
2022-09-20T06:37:08.774Z,6.10
2022-09-20T06:40:13.868Z,6.20
2022-09-20T06:42:45.569Z,6.27
2022-09-20T06:45:17.290Z,7.20
2022-09-20T06:47:49.002Z,6.87
2022-09-20T06:50:20.842Z,6.00
2022-09-20T06:52:53.603Z,6.10
2022-09-20T06:55:32.146Z,6.20
2022-09-20T06:58:04.195Z,7.30
2022-09-20T07:00:36.739Z,6.40
2022-09-20T07:03:08.606Z,6.77
2022-09-20T07:05:40.661Z,6.33
2022-09-20T07:08:12.646Z,5.83
2022-09-20T07:10:45.095Z,6.73
2022-09-20T07:13:19.203Z,7.73
2022-09-20T07:15:51.157Z,6.77
2022-09-20T07:18:23.033Z,6.20
2022-09-20T07:20:55.674Z,6.27
2022-09-20T07:23:29.775Z,5.95
2022-09-20T07:26:01.557Z,5.93
2022-09-20T07:28:34.743Z,7.10
2022-09-20T07:31:06.495Z,7.20
2022-09-20T07:33:38.167Z,7.10
2022-09-20T07:36:12.343Z,7.27
2022-09-20T07:38:48.678Z,8.40
2022-09-20T07:41:22.925Z,7.10
2022-09-20T07:43:54.711Z,8.87
2022-09-20T07:46:26.491Z,7.53
2022-09-20T07:48:58.155Z,6.22
2022-09-20T07:51:29.810Z,8.50
2022-09-20T07:54:01.544Z,7.17
2022-09-20T07:56:33.307Z,5.60
2022-09-20T07:59:05.061Z,5.53
2022-09-20T08:01:38.082Z,4.63
2022-09-20T08:04:10.371Z,4.57
2022-09-20T08:06:45.985Z,3.80
2022-09-20T08:09:17.861Z,4.50
2022-09-20T08:11:50.155Z,3.23
2022-09-20T08:14:22.254Z,5.37
2022-09-20T08:16:54.724Z,5.30
2022-09-20T08:19:26.750Z,4.80
2022-09-20T08:21:58.523Z,3.90
2022-09-20T08:24:30.195Z,3.73
2022-09-20T08:27:02.558Z,2.87
2022-09-20T08:29:34.298Z,4.13
2022-09-20T08:32:06.199Z,4.57
2022-09-20T08:34:39.606Z,3.30
2022-09-20T08:37:11.267Z,3.67
2022-09-20T08:39:58.987Z,3.80
2022-09-20T08:42:43.767Z,2.90
2022-09-20T08:45:22.692Z,4.10
2022-09-20T08:48:14.193Z,2.90
2022-09-20T08:50:46.218Z,3.13
2022-09-20T08:53:21.312Z,3.10
2022-09-20T08:55:53.284Z,3.20
2022-09-20T08:58:27.264Z,2.50
2022-09-20T09:01:00.097Z,2.93
2022-09-20T09:03:33.593Z,2.40
2022-09-20T09:06:10.353Z,2.97
2022-09-20T09:08:44.628Z,2.60
2022-09-20T09:11:18.838Z,2.50
2022-09-20T09:13:53.626Z,2.70
2022-09-20T09:16:34.707Z,2.30
2022-09-20T09:19:43.757Z,2.17
2022-09-20T09:22:36.861Z,2.20
2022-09-20T09:25:22.173Z,2.40
2022-09-20T09:28:03.667Z,2.80
2022-09-20T09:30:38.390Z,2.63
2022-09-20T09:33:24.977Z,2.30
2022-09-20T09:36:04.051Z,3.43
2022-09-20T09:38:41.481Z,3.23
2022-09-20T09:41:26.330Z,2.50
2022-09-20T09:44:19.190Z,2.90
2022-09-20T09:46:53.488Z,2.60
2022-09-20T09:49:36.113Z,2.83
2022-09-20T09:52:26.098Z,2.73
2022-09-20T09:55:03.219Z,3.30
2022-09-20T09:57:56.029Z,3.60
2022-09-20T10:00:31.383Z,3.20
2022-09-20T10:03:19.514Z,2.43
2022-09-20T10:06:18.581Z,2.20
2022-09-20T10:09:17.984Z,2.27
2022-09-20T10:12:07.645Z,2.60
2022-09-20T10:15:07.173Z,1.83
2022-09-20T10:18:00.952Z,2.03
2022-09-20T10:20:53.154Z,2.47
2022-09-20T10:26:43.848Z,1.40
2022-09-20T10:29:31.343Z,1.40
2022-09-20T10:32:27.478Z,1.50
2022-09-20T10:35:33.807Z,1.93
2022-09-20T10:38:23.440Z,2.03
2022-09-20T10:41:22.222Z,1.77
2022-09-20T10:44:09.268Z,2.13
2022-09-20T10:47:06.782Z,2.33
2022-09-20T10:50:09.078Z,2.27
2022-09-20T10:52:56.100Z,2.00
2022-09-20T10:55:52.028Z,1.53
2022-09-20T10:58:46.201Z,2.40
2022-09-20T11:01:20.924Z,1.50
2022-09-20T11:04:31.046Z,1.97
2022-09-20T11:07:23.083Z,1.93
2022-09-20T11:10:03.304Z,2.60
2022-09-20T11:12:42.478Z,2.67
2022-09-20T11:15:35.460Z,2.00
2022-09-20T11:18:23.386Z,2.70
2022-09-20T11:21:23.397Z,2.43
2022-09-20T11:24:05.243Z,2.40
2022-09-20T11:26:48.077Z,3.10
2022-09-20T11:29:45.147Z,2.53
2022-09-20T11:32:46.489Z,3.33
2022-09-20T11:35:25.082Z,3.83
2022-09-20T11:38:13.439Z,3.30
2022-09-20T11:40:57.907Z,2.50
2022-09-20T11:43:31.877Z,2.80
2022-09-20T11:46:08.150Z,3.30
2022-09-20T11:48:46.796Z,2.33
2022-09-20T11:51:56.090Z,3.00
2022-09-20T11:55:10.769Z,3.17
2022-09-20T11:57:42.613Z,3.70
2022-09-20T12:00:15.052Z,2.70
2022-09-20T12:02:48.770Z,2.30
2022-09-20T12:05:35.850Z,2.67
2022-09-20T12:08:20.694Z,2.90
2022-09-20T12:11:12.177Z,3.13
2022-09-20T12:13:55.440Z,4.30
2022-09-20T12:16:48.052Z,3.60
2022-09-20T12:19:36.332Z,3.40
2022-09-20T12:22:08.094Z,2.60
2022-09-20T12:24:45.104Z,2.73
2022-09-20T12:27:29.548Z,2.97
2022-09-20T12:30:16.794Z,2.67
2022-09-20T12:32:55.050Z,2.80
2022-09-20T12:35:36.057Z,3.07
2022-09-20T12:38:27.555Z,3.10
2022-09-20T12:41:11.479Z,2.90
2022-09-20T12:43:57.461Z,3.00
2022-09-20T12:46:33.848Z,2.38
2022-09-20T12:49:41.581Z,1.80
2022-09-20T12:52:45.342Z,2.30
2022-09-20T12:55:40.560Z,3.17
2022-09-20T12:58:13.977Z,3.83
2022-09-20T13:01:00.732Z,2.20
2022-09-20T13:03:37.507Z,2.70
2022-09-20T13:06:10.899Z,2.30
2022-09-20T13:09:00.673Z,2.67
2022-09-20T13:12:01.221Z,2.20
2022-09-20T13:14:34.823Z,2.37
2022-09-20T13:17:13.540Z,2.67
2022-09-20T13:19:47.823Z,2.53
2022-09-20T13:22:33.111Z,1.80
2022-09-20T13:25:07.095Z,1.60
2022-09-20T13:27:45.097Z,2.00
2022-09-20T13:30:31.184Z,2.40
2022-09-20T13:33:16.528Z,2.50
2022-09-20T13:35:52.418Z,2.00
2022-09-20T13:38:27.838Z,2.00
2022-09-20T13:41:07.231Z,2.30
2022-09-20T13:43:41.517Z,2.70
2022-09-20T13:46:18.584Z,2.83
2022-09-20T13:48:59.615Z,2.20
2022-09-20T13:51:34.747Z,2.57
2022-09-20T13:54:28.319Z,2.43
2022-09-20T13:57:06.718Z,2.40
2022-09-20T13:59:45.365Z,1.90
2022-09-20T14:02:30.515Z,2.30
2022-09-20T14:05:05.307Z,2.80
2022-09-20T14:07:37.027Z,2.50
2022-09-20T14:10:42.941Z,3.07
2022-09-20T14:13:17.205Z,2.70
2022-09-20T14:15:49.670Z,2.70
2022-09-20T14:18:22.431Z,3.07
2022-09-20T14:20:55.412Z,3.80
2022-09-20T14:23:29.187Z,2.87
2022-09-20T14:26:16.070Z,3.07
2022-09-20T14:28:48.114Z,2.70
2022-09-20T14:31:27.233Z,2.30
2022-09-20T14:34:02.522Z,2.20
2022-09-20T14:36:34.250Z,4.00
2022-09-20T14:39:14.899Z,1.93
2022-09-20T14:41:47.106Z,2.50
2022-09-20T14:44:30.098Z,2.20
2022-09-20T14:47:14.585Z,1.97
2022-09-20T14:49:46.335Z,2.17
2022-09-20T14:52:26.822Z,2.57
2022-09-20T14:55:13.842Z,2.57
2022-09-20T14:57:47.034Z,3.20
2022-09-20T15:00:20.644Z,2.33
2022-09-20T15:02:53.051Z,2.33
2022-09-20T15:05:26.700Z,2.17
2022-09-20T15:07:59.427Z,2.40
2022-09-20T15:10:31.194Z,2.30
2022-09-20T15:13:02.958Z,2.50
2022-09-20T15:15:34.714Z,2.47
2022-09-20T15:18:20.293Z,1.70
2022-09-20T15:20:53.893Z,2.27
2022-09-20T15:23:25.559Z,2.10
2022-09-20T15:25:57.319Z,2.50
2022-09-20T15:28:29.155Z,1.77
2022-09-20T15:31:01.122Z,1.80
2022-09-20T15:33:33.559Z,2.43
2022-09-20T15:36:05.749Z,1.90
2022-09-20T15:38:37.492Z,1.90
2022-09-20T15:41:10.042Z,1.97
2022-09-20T15:43:43.270Z,2.00
2022-09-20T15:46:22.963Z,2.23
2022-09-20T15:48:56.289Z,2.20
2022-09-20T15:51:29.457Z,2.63
2022-09-20T15:54:06.146Z,2.43
2022-09-20T15:56:40.140Z,2.20
2022-09-20T15:59:13.282Z,2.33
2022-09-20T16:01:47.732Z,2.70
2022-09-20T16:04:20.612Z,1.93
2022-09-20T16:06:52.594Z,2.23
2022-09-20T16:09:24.270Z,2.37
2022-09-20T16:11:58.806Z,3.10
2022-09-20T16:14:31.303Z,2.30
2022-09-20T16:17:03.005Z,1.90
2022-09-20T16:19:35.673Z,2.40
2022-09-20T16:22:07.746Z,1.80
2022-09-20T16:24:39.424Z,2.03
2022-09-20T16:27:11.083Z,2.50
2022-09-20T16:29:42.737Z,2.40
2022-09-20T16:32:14.610Z,2.47
2022-09-20T16:34:46.345Z,2.90
2022-09-20T16:37:18.943Z,2.50
2022-09-20T16:39:50.658Z,3.03
2022-09-20T16:42:23.553Z,2.70
2022-09-20T16:44:55.326Z,2.80
2022-09-20T16:47:27.174Z,3.20
2022-09-20T16:49:58.864Z,2.90
2022-09-20T16:52:30.557Z,2.30
2022-09-20T16:55:03.091Z,3.90
2022-09-20T16:57:36.772Z,2.70
2022-09-20T17:00:11.710Z,2.40
2022-09-20T17:02:47.761Z,2.90
2022-09-20T17:05:19.754Z,3.13
2022-09-20T17:07:51.461Z,3.57
2022-09-20T17:10:24.397Z,2.97
2022-09-20T17:12:59.516Z,2.40
2022-09-20T17:15:31.190Z,2.33
2022-09-20T17:18:05.418Z,2.07
2022-09-20T17:20:39.250Z,3.47
2022-09-20T17:23:10.985Z,3.10
2022-09-20T17:25:46.210Z,3.40
2022-09-20T17:28:18.095Z,3.13
2022-09-20T17:30:49.848Z,2.90
2022-09-20T17:33:21.517Z,3.10
2022-09-20T17:35:53.165Z,3.03
2022-09-20T17:38:24.944Z,4.17
2022-09-20T17:41:00.734Z,4.40
2022-09-20T17:43:33.388Z,6.63
2022-09-20T17:46:13.930Z,6.40
2022-09-20T17:48:49.004Z,4.07
2022-09-20T17:51:21.398Z,5.10
2022-09-20T17:53:55.670Z,4.67
2022-09-20T17:56:31.153Z,4.97
2022-09-20T17:59:05.281Z,4.50
2022-09-20T18:01:37.966Z,3.20
2022-09-20T18:04:10.115Z,3.23
2022-09-20T18:06:46.133Z,3.47
2022-09-20T18:09:28.168Z,3.30
2022-09-20T18:11:59.844Z,3.33
2022-09-20T18:14:32.537Z,2.70
2022-09-20T18:17:05.321Z,3.07
2022-09-20T18:19:37.066Z,3.63
2022-09-20T18:22:08.715Z,3.00
2022-09-20T18:24:40.377Z,3.37
2022-09-20T18:27:13.311Z,2.90
2022-09-20T18:29:45.017Z,3.13
2022-09-20T18:32:17.077Z,2.90
2022-09-20T18:34:51.201Z,4.10
2022-09-20T18:37:22.854Z,4.27
2022-09-20T18:39:54.590Z,3.80
2022-09-20T18:42:26.365Z,5.33
2022-09-20T18:44:59.139Z,6.60
2022-09-20T18:47:31.892Z,9.43
2022-09-20T18:50:03.833Z,8.57
2022-09-20T18:52:35.734Z,11.87
2022-09-20T18:55:07.906Z,7.50
2022-09-20T18:57:39.761Z,5.27
2022-09-20T19:00:12.646Z,4.82
2022-09-20T19:03:10.761Z,4.73
2022-09-20T19:05:50.757Z,4.33
2022-09-20T19:08:34.204Z,4.20
2022-09-20T19:11:11.882Z,4.20
2022-09-20T19:13:52.125Z,4.17
2022-09-20T19:16:34.376Z,4.00
2022-09-20T19:19:18.087Z,4.60
2022-09-20T19:22:04.814Z,6.63
2022-09-20T19:25:04.823Z,12.40
2022-09-20T19:27:36.856Z,6.83
2022-09-20T19:30:13.365Z,8.47
2022-09-20T19:32:45.616Z,6.70
2022-09-20T19:35:28.386Z,7.97
2022-09-20T19:38:23.797Z,17.73
2022-09-20T19:41:18.047Z,11.57
2022-09-20T19:44:15.106Z,25.10
2022-09-20T19:46:50.908Z,18.07
2022-09-20T19:49:48.685Z,8.43
2022-09-20T19:52:21.665Z,6.00
2022-09-20T19:54:53.754Z,5.60
2022-09-20T19:57:47.083Z,4.63
2022-09-20T20:00:20.647Z,4.90
2022-09-20T20:02:53.858Z,4.23
2022-09-20T20:05:27.579Z,4.53
2022-09-20T20:08:11.281Z,4.47
2022-09-20T20:11:19.481Z,4.27
2022-09-20T20:14:03.315Z,4.50
2022-09-20T20:16:53.880Z,6.50
2022-09-20T20:19:48.539Z,5.47
2022-09-20T20:22:40.930Z,4.60
2022-09-20T20:25:48.822Z,4.90
2022-09-20T20:28:20.503Z,3.87
2022-09-20T20:30:53.905Z,4.90
2022-09-20T20:33:28.892Z,4.17
2022-09-20T20:36:02.205Z,5.30
2022-09-20T20:38:37.556Z,4.00
2022-09-20T20:41:13.639Z,4.07
2022-09-20T20:43:47.132Z,2.90
2022-09-20T20:46:18.961Z,3.55
2022-09-20T20:48:50.794Z,3.70
2022-09-20T20:51:22.961Z,3.53
2022-09-20T20:53:55.371Z,3.73
2022-09-20T20:56:31.278Z,9.37
2022-09-20T20:59:04.307Z,17.60
2022-09-20T21:01:44.693Z,9.83
2022-09-20T21:04:18.129Z,9.40
2022-09-20T21:06:50.392Z,11.77
2022-09-20T21:09:22.251Z,9.13
2022-09-20T21:11:53.941Z,8.40
2022-09-20T21:14:25.635Z,15.30
2022-09-20T21:16:57.295Z,12.40
2022-09-20T21:19:28.999Z,8.33
2022-09-20T21:22:00.704Z,10.23
2022-09-20T21:24:32.384Z,11.83
2022-09-20T21:27:04.679Z,7.07
2022-09-20T21:29:36.806Z,6.57
2022-09-20T21:32:08.476Z,4.50
2022-09-20T21:34:40.221Z,4.90
2022-09-20T21:37:12.095Z,5.03
2022-09-20T21:39:43.750Z,4.50
2022-09-20T21:42:17.066Z,4.47
2022-09-20T21:44:48.762Z,4.67
2022-09-20T21:47:20.522Z,4.73
2022-09-20T21:49:52.537Z,4.00
2022-09-20T21:52:24.268Z,7.03
2022-09-20T21:54:55.959Z,4.03
2022-09-20T21:57:27.787Z,4.20
2022-09-20T21:59:59.533Z,4.07
2022-09-20T22:02:31.714Z,4.67
2022-09-20T22:05:03.554Z,4.33
2022-09-20T22:07:35.226Z,4.18
2022-09-20T22:10:07.465Z,4.20
2022-09-20T22:12:39.209Z,5.40
2022-09-20T22:15:11.113Z,4.90
2022-09-20T22:17:45.911Z,4.50
2022-09-20T22:20:17.586Z,4.00
2022-09-20T22:22:49.234Z,4.37
2022-09-20T22:25:20.911Z,4.23
2022-09-20T22:27:52.564Z,3.97
2022-09-20T22:30:24.262Z,4.60
2022-09-20T22:32:56.002Z,4.40
2022-09-20T22:35:27.655Z,3.77
2022-09-20T22:37:59.400Z,4.23
2022-09-20T22:40:31.169Z,3.90
2022-09-20T22:43:02.892Z,3.80
2022-09-20T22:45:34.892Z,4.13
2022-09-20T22:48:06.550Z,3.60
2022-09-20T22:50:38.267Z,4.70
2022-09-20T22:53:10.174Z,4.20
2022-09-20T22:55:41.892Z,4.30
2022-09-20T22:58:13.557Z,4.43
2022-09-20T23:00:45.674Z,3.83
2022-09-20T23:03:17.420Z,4.90
2022-09-20T23:05:49.158Z,4.20
2022-09-20T23:08:22.388Z,4.70
2022-09-20T23:11:04.832Z,4.03
2022-09-20T23:13:36.582Z,4.13
2022-09-20T23:16:15.586Z,3.73
2022-09-20T23:18:48.666Z,4.40
2022-09-20T23:21:21.038Z,4.10
2022-09-20T23:23:55.170Z,5.77
2022-09-20T23:26:29.737Z,5.80
2022-09-20T23:29:06.270Z,4.60
2022-09-20T23:31:40.163Z,4.77
2022-09-20T23:34:12.969Z,5.10
2022-09-20T23:36:45.942Z,5.67
2022-09-20T23:39:17.662Z,5.90
2022-09-20T23:41:51.268Z,5.60
2022-09-20T23:44:23.243Z,7.20
2022-09-20T23:46:54.919Z,6.10
2022-09-20T23:49:27.470Z,5.63
2022-09-20T23:51:59.219Z,6.30
2022-09-20T23:54:30.996Z,6.47
2022-09-20T23:57:02.723Z,6.80
2022-09-20T23:59:34.619Z,6.73
